Whitmore Lake, MI (48189)

3:29 PM EST on December 21, 2014 (GMT -0500)
North Shore | Change Station
CLOSE
Current Station
Personal Weather Station
Location: Whitmore Lake, MI
Elevation: 912 ft
Nearby Weather Stations

Elev 912 ft 42.44 °N, 83.74 °W | Updated 22 seconds ago

Overcast
Overcast
33.3 °F
Feels Like 29 °F
N
4.5
Wind Variable Wind from SSE
Gusts 8.1 mph

Today
High -- | Low -- °F
--% Chance of Precip.
Yesterday
High -- | Low -- °F
Precip. -- in
8:01 AM 5:05 PM
Waning Crescent, 0% visible
Pressure 30.25 in
Visibility 10.0 miles
Clouds Few 2000 ft
Overcast 5500 ft
Windchill 29 °F
Dew Point 22 °F
Humidity 64%
Rainfall 0.00 in
Snow Depth Not available.
UV 0 out of 12
Pollen .10 out of 12
Air Quality Not available.
Flu Activity Not available.
METAR KARB 211953Z 18006KT 10SM FEW020 OVC055 01/M04 A3021 RMK AO2 SLP241 T00111039

More Conditions Fewer Conditions

Pressure 30.25 in
Visibility 10.0 miles
Clouds Few 2000 ft
Overcast 5500 ft
Windchill 29 °F
Dew Point 22 °F
Humidity 64%
Rainfall 0.00 in
Snow Depth Not available.
UV 0 out of 12
Pollen .10 out of 12
Air Quality Not available.
Flu Activity Not available.
METAR KARB 211953Z 18006KT 10SM FEW020 OVC055 01/M04 A3021 RMK AO2 SLP241 T00111039

More Conditions Fewer Conditions

10-Day Weather Forecast

Almanac

Astronomy

Dec. 21, 2014 Rise Set
Actual Time
Civil Twilight
Nautical Twilight
Astronomical Twilight
Moon
Length of Visible Light
Length of Day
Tomorrow will be .
, % of the Moon is Illuminated

Today's Extremes

State Highs State Lows

Community

WunderPhotos

Upload Photos

1,779,469 photos uploaded!

WunderBlogs® & News

Nearby

Air Quality

  Air Quality AQ Index Pollutant
Not available.

Snow Depth

Station Depth Elevation

Earthquake Activity

City Distance Mag. Time & Date
Minimum magnitude displayed is 2.5.

Coastal Water Temperatures

Place Temperature

Nearby Weather Stations